sensor_id;sensor_type;location;lat;lon;timestamp;P1;durP1;ratioP1;P2;durP2;ratioP2
6626;SDS011;3349;49.830;8.748;2024-02-26T00:00:07;11.45;;;4.97;;
6626;SDS011;3349;49.830;8.748;2024-02-26T00:02:36;11.07;;;5.20;;
6626;SDS011;3349;49.830;8.748;2024-02-26T00:05:05;13.05;;;5.65;;
6626;SDS011;3349;49.830;8.748;2024-02-26T00:07:32;9.60;;;5.03;;
6626;SDS011;3349;49.830;8.748;2024-02-26T00:09:59;6.05;;;3.97;;
6626;SDS011;3349;49.830;8.748;2024-02-26T00:12:25;10.80;;;3.05;;
6626;SDS011;3349;49.830;8.748;2024-02-26T00:14:52;6.78;;;2.70;;
6626;SDS011;3349;49.830;8.748;2024-02-26T00:17:19;4.65;;;3.08;;
6626;SDS011;3349;49.830;8.748;2024-02-26T00:19:47;3.97;;;2.63;;
6626;SDS011;3349;49.830;8.748;2024-02-26T00:22:13;4.88;;;2.70;;
6626;SDS011;3349;49.830;8.748;2024-02-26T00:24:40;5.80;;;2.60;;
6626;SDS011;3349;49.830;8.748;2024-02-26T00:27:07;4.53;;;2.10;;
6626;SDS011;3349;49.830;8.748;2024-02-26T00:29:34;3.08;;;2.22;;
6626;SDS011;3349;49.830;8.748;2024-02-26T00:32:00;2.17;;;1.98;;
6626;SDS011;3349;49.830;8.748;2024-02-26T00:34:27;3.08;;;2.10;;
6626;SDS011;3349;49.830;8.748;2024-02-26T00:36:55;4.53;;;2.05;;
6626;SDS011;3349;49.830;8.748;2024-02-26T00:39:22;4.85;;;2.47;;
6626;SDS011;3349;49.830;8.748;2024-02-26T00:41:48;3.55;;;2.45;;
6626;SDS011;3349;49.830;8.748;2024-02-26T00:44:16;2.83;;;2.40;;
6626;SDS011;3349;49.830;8.748;2024-02-26T00:46:43;4.00;;;2.53;;
6626;SDS011;3349;49.830;8.748;2024-02-26T00:49:09;3.45;;;2.03;;
6626;SDS011;3349;49.830;8.748;2024-02-26T00:51:36;3.13;;;2.60;;
6626;SDS011;3349;49.830;8.748;2024-02-26T00:54:04;3.83;;;2.45;;
6626;SDS011;3349;49.830;8.748;2024-02-26T00:56:31;3.00;;;2.08;;
6626;SDS011;3349;49.830;8.748;2024-02-26T00:58:58;3.28;;;2.25;;
6626;SDS011;3349;49.830;8.748;2024-02-26T01:01:24;3.58;;;1.85;;
6626;SDS011;3349;49.830;8.748;2024-02-26T01:03:51;4.15;;;2.10;;
6626;SDS011;3349;49.830;8.748;2024-02-26T01:06:18;4.75;;;2.22;;
6626;SDS011;3349;49.830;8.748;2024-02-26T01:08:44;4.00;;;2.67;;
6626;SDS011;3349;49.830;8.748;2024-02-26T01:11:12;2.40;;;2.13;;
6626;SDS011;3349;49.830;8.748;2024-02-26T01:13:39;4.20;;;2.50;;
6626;SDS011;3349;49.830;8.748;2024-02-26T01:16:06;4.63;;;2.63;;
6626;SDS011;3349;49.830;8.748;2024-02-26T01:18:32;4.05;;;1.80;;
6626;SDS011;3349;49.830;8.748;2024-02-26T01:20:59;3.28;;;2.13;;
6626;SDS011;3349;49.830;8.748;2024-02-26T01:23:26;3.10;;;2.13;;
6626;SDS011;3349;49.830;8.748;2024-02-26T01:25:52;7.75;;;2.63;;
6626;SDS011;3349;49.830;8.748;2024-02-26T01:28:20;2.50;;;1.90;;
6626;SDS011;3349;49.830;8.748;2024-02-26T01:30:47;3.10;;;2.20;;
6626;SDS011;3349;49.830;8.748;2024-02-26T01:33:14;3.35;;;2.00;;
6626;SDS011;3349;49.830;8.748;2024-02-26T01:35:40;2.47;;;2.00;;
6626;SDS011;3349;49.830;8.748;2024-02-26T01:38:07;2.83;;;2.20;;
6626;SDS011;3349;49.830;8.748;2024-02-26T01:40:34;3.10;;;2.03;;
6626;SDS011;3349;49.830;8.748;2024-02-26T01:43:01;3.58;;;1.90;;
6626;SDS011;3349;49.830;8.748;2024-02-26T01:45:29;3.33;;;2.22;;
6626;SDS011;3349;49.830;8.748;2024-02-26T01:47:56;3.05;;;2.28;;
6626;SDS011;3349;49.830;8.748;2024-02-26T01:50:23;3.00;;;1.63;;
6626;SDS011;3349;49.830;8.748;2024-02-26T01:52:50;2.15;;;1.80;;
6626;SDS011;3349;49.830;8.748;2024-02-26T01:55:18;3.30;;;2.00;;
6626;SDS011;3349;49.830;8.748;2024-02-26T01:57:47;3.08;;;1.92;;
6626;SDS011;3349;49.830;8.748;2024-02-26T02:00:16;2.95;;;1.95;;
6626;SDS011;3349;49.830;8.748;2024-02-26T02:02:46;2.42;;;2.00;;
6626;SDS011;3349;49.830;8.748;2024-02-26T02:05:13;4.78;;;2.35;;
6626;SDS011;3349;49.830;8.748;2024-02-26T02:07:41;6.03;;;2.92;;
6626;SDS011;3349;49.830;8.748;2024-02-26T02:10:09;3.95;;;2.53;;
6626;SDS011;3349;49.830;8.748;2024-02-26T02:12:36;5.38;;;2.70;;
6626;SDS011;3349;49.830;8.748;2024-02-26T02:15:05;3.05;;;2.05;;
6626;SDS011;3349;49.830;8.748;2024-02-26T02:17:32;6.05;;;1.85;;
6626;SDS011;3349;49.830;8.748;2024-02-26T02:20:00;4.15;;;2.42;;
6626;SDS011;3349;49.830;8.748;2024-02-26T02:22:29;3.70;;;2.70;;
6626;SDS011;3349;49.830;8.748;2024-02-26T02:24:57;3.67;;;2.30;;
6626;SDS011;3349;49.830;8.748;2024-02-26T02:27:24;4.28;;;2.00;;
6626;SDS011;3349;49.830;8.748;2024-02-26T02:29:51;2.97;;;2.17;;
6626;SDS011;3349;49.830;8.748;2024-02-26T02:32:18;4.22;;;2.20;;
6626;SDS011;3349;49.830;8.748;2024-02-26T02:34:46;3.83;;;2.22;;
6626;SDS011;3349;49.830;8.748;2024-02-26T02:37:13;2.97;;;2.30;;
6626;SDS011;3349;49.830;8.748;2024-02-26T02:39:41;4.30;;;2.20;;
6626;SDS011;3349;49.830;8.748;2024-02-26T02:42:08;2.55;;;2.00;;
6626;SDS011;3349;49.830;8.748;2024-02-26T02:44:35;3.25;;;2.30;;
6626;SDS011;3349;49.830;8.748;2024-02-26T02:47:01;4.75;;;2.15;;
6626;SDS011;3349;49.830;8.748;2024-02-26T02:49:28;3.33;;;2.15;;
6626;SDS011;3349;49.830;8.748;2024-02-26T02:51:55;5.22;;;2.50;;
6626;SDS011;3349;49.830;8.748;2024-02-26T02:54:22;5.55;;;2.47;;
6626;SDS011;3349;49.830;8.748;2024-02-26T02:56:50;6.82;;;2.90;;
6626;SDS011;3349;49.830;8.748;2024-02-26T02:59:17;3.60;;;2.30;;
6626;SDS011;3349;49.830;8.748;2024-02-26T03:01:44;3.63;;;2.22;;
6626;SDS011;3349;49.830;8.748;2024-02-26T03:04:10;4.35;;;2.38;;
6626;SDS011;3349;49.830;8.748;2024-02-26T03:06:38;3.17;;;2.10;;
6626;SDS011;3349;49.830;8.748;2024-02-26T03:09:05;2.28;;;2.00;;
6626;SDS011;3349;49.830;8.748;2024-02-26T03:11:31;2.80;;;2.00;;
6626;SDS011;3349;49.830;8.748;2024-02-26T03:14:00;4.55;;;2.20;;
6626;SDS011;3349;49.830;8.748;2024-02-26T03:16:27;4.07;;;2.20;;
6626;SDS011;3349;49.830;8.748;2024-02-26T03:18:53;2.50;;;1.83;;
6626;SDS011;3349;49.830;8.748;2024-02-26T03:21:20;3.80;;;1.88;;
6626;SDS011;3349;49.830;8.748;2024-02-26T03:23:47;4.35;;;2.20;;
6626;SDS011;3349;49.830;8.748;2024-02-26T03:26:14;3.92;;;2.08;;
6626;SDS011;3349;49.830;8.748;2024-02-26T03:28:40;2.55;;;2.03;;
6626;SDS011;3349;49.830;8.748;2024-02-26T03:31:08;4.25;;;2.47;;
6626;SDS011;3349;49.830;8.748;2024-02-26T03:33:37;3.85;;;2.20;;
6626;SDS011;3349;49.830;8.748;2024-02-26T03:36:04;3.28;;;2.05;;
6626;SDS011;3349;49.830;8.748;2024-02-26T03:38:32;3.55;;;2.03;;
6626;SDS011;3349;49.830;8.748;2024-02-26T03:40:59;3.60;;;2.20;;
6626;SDS011;3349;49.830;8.748;2024-02-26T03:43:25;3.63;;;2.00;;
6626;SDS011;3349;49.830;8.748;2024-02-26T03:45:52;5.97;;;2.58;;
6626;SDS011;3349;49.830;8.748;2024-02-26T03:48:20;4.10;;;2.10;;
6626;SDS011;3349;49.830;8.748;2024-02-26T03:50:47;3.80;;;2.10;;
6626;SDS011;3349;49.830;8.748;2024-02-26T03:53:13;2.60;;;1.88;;
6626;SDS011;3349;49.830;8.748;2024-02-26T03:55:40;3.42;;;2.28;;
6626;SDS011;3349;49.830;8.748;2024-02-26T03:58:07;2.70;;;2.25;;
6626;SDS011;3349;49.830;8.748;2024-02-26T04:00:34;3.10;;;2.40;;
6626;SDS011;3349;49.830;8.748;2024-02-26T04:03:01;5.70;;;2.40;;
6626;SDS011;3349;49.830;8.748;2024-02-26T04:05:29;3.88;;;2.88;;
6626;SDS011;3349;49.830;8.748;2024-02-26T04:07:55;2.72;;;2.15;;
6626;SDS011;3349;49.830;8.748;2024-02-26T04:10:22;3.53;;;2.63;;
6626;SDS011;3349;49.830;8.748;2024-02-26T04:12:49;5.68;;;2.72;;
6626;SDS011;3349;49.830;8.748;2024-02-26T04:15:16;3.30;;;2.60;;
6626;SDS011;3349;49.830;8.748;2024-02-26T04:17:43;4.20;;;2.50;;
6626;SDS011;3349;49.830;8.748;2024-02-26T04:20:12;2.85;;;2.30;;
6626;SDS011;3349;49.830;8.748;2024-02-26T04:22:41;4.47;;;3.13;;
6626;SDS011;3349;49.830;8.748;2024-02-26T04:25:08;11.90;;;7.75;;
6626;SDS011;3349;49.830;8.748;2024-02-26T04:27:35;10.68;;;7.43;;
6626;SDS011;3349;49.830;8.748;2024-02-26T04:30:02;5.20;;;3.78;;
6626;SDS011;3349;49.830;8.748;2024-02-26T04:32:29;3.85;;;2.33;;
6626;SDS011;3349;49.830;8.748;2024-02-26T04:34:56;3.45;;;2.30;;
6626;SDS011;3349;49.830;8.748;2024-02-26T04:37:23;5.18;;;2.10;;
6626;SDS011;3349;49.830;8.748;2024-02-26T04:39:50;3.05;;;2.35;;
6626;SDS011;3349;49.830;8.748;2024-02-26T04:42:17;4.15;;;2.60;;
6626;SDS011;3349;49.830;8.748;2024-02-26T04:44:44;2.97;;;2.40;;
6626;SDS011;3349;49.830;8.748;2024-02-26T04:47:10;2.95;;;2.30;;
6626;SDS011;3349;49.830;8.748;2024-02-26T04:49:38;3.75;;;2.63;;
6626;SDS011;3349;49.830;8.748;2024-02-26T04:52:05;3.00;;;2.60;;
6626;SDS011;3349;49.830;8.748;2024-02-26T04:54:31;2.83;;;2.53;;
6626;SDS011;3349;49.830;8.748;2024-02-26T04:56:59;4.05;;;2.80;;
6626;SDS011;3349;49.830;8.748;2024-02-26T04:59:26;3.42;;;2.88;;
6626;SDS011;3349;49.830;8.748;2024-02-26T05:01:53;4.25;;;2.78;;
6626;SDS011;3349;49.830;8.748;2024-02-26T05:04:20;3.55;;;3.10;;
6626;SDS011;3349;49.830;8.748;2024-02-26T05:06:46;3.70;;;3.13;;
6626;SDS011;3349;49.830;8.748;2024-02-26T05:09:13;3.92;;;3.00;;
6626;SDS011;3349;49.830;8.748;2024-02-26T05:11:40;3.22;;;2.92;;
6626;SDS011;3349;49.830;8.748;2024-02-26T05:14:08;3.35;;;2.90;;
6626;SDS011;3349;49.830;8.748;2024-02-26T05:16:35;3.58;;;2.63;;
6626;SDS011;3349;49.830;8.748;2024-02-26T05:19:02;5.30;;;2.65;;
6626;SDS011;3349;49.830;8.748;2024-02-26T05:21:28;3.60;;;2.95;;
6626;SDS011;3349;49.830;8.748;2024-02-26T05:23:55;4.57;;;3.30;;
6626;SDS011;3349;49.830;8.748;2024-02-26T05:26:22;3.78;;;3.10;;
6626;SDS011;3349;49.830;8.748;2024-02-26T05:28:49;3.20;;;2.88;;
6626;SDS011;3349;49.830;8.748;2024-02-26T05:31:17;5.03;;;3.35;;
6626;SDS011;3349;49.830;8.748;2024-02-26T05:33:44;3.40;;;2.92;;
6626;SDS011;3349;49.830;8.748;2024-02-26T05:36:17;4.72;;;3.53;;
6626;SDS011;3349;49.830;8.748;2024-02-26T05:38:44;3.88;;;3.28;;
6626;SDS011;3349;49.830;8.748;2024-02-26T05:41:11;4.05;;;3.60;;
6626;SDS011;3349;49.830;8.748;2024-02-26T05:43:38;4.68;;;3.70;;
6626;SDS011;3349;49.830;8.748;2024-02-26T05:46:04;4.95;;;3.78;;
6626;SDS011;3349;49.830;8.748;2024-02-26T05:48:32;5.30;;;4.20;;
6626;SDS011;3349;49.830;8.748;2024-02-26T05:50:59;5.78;;;4.80;;
6626;SDS011;3349;49.830;8.748;2024-02-26T05:53:26;7.00;;;5.45;;
6626;SDS011;3349;49.830;8.748;2024-02-26T05:55:52;6.75;;;5.30;;
6626;SDS011;3349;49.830;8.748;2024-02-26T05:58:19;6.88;;;5.45;;
6626;SDS011;3349;49.830;8.748;2024-02-26T06:00:46;7.90;;;5.85;;
6626;SDS011;3349;49.830;8.748;2024-02-26T06:03:12;7.45;;;6.10;;
6626;SDS011;3349;49.830;8.748;2024-02-26T06:05:40;8.05;;;6.05;;
6626;SDS011;3349;49.830;8.748;2024-02-26T06:08:08;8.98;;;6.30;;
6626;SDS011;3349;49.830;8.748;2024-02-26T06:10:34;10.23;;;7.00;;
6626;SDS011;3349;49.830;8.748;2024-02-26T06:13:01;8.98;;;6.30;;
6626;SDS011;3349;49.830;8.748;2024-02-26T06:15:28;7.47;;;5.43;;
6626;SDS011;3349;49.830;8.748;2024-02-26T06:17:54;6.30;;;4.60;;
6626;SDS011;3349;49.830;8.748;2024-02-26T06:20:21;7.80;;;4.72;;
6626;SDS011;3349;49.830;8.748;2024-02-26T06:22:49;8.60;;;5.35;;
6626;SDS011;3349;49.830;8.748;2024-02-26T06:25:16;13.93;;;9.73;;
6626;SDS011;3349;49.830;8.748;2024-02-26T06:27:43;17.30;;;9.88;;
6626;SDS011;3349;49.830;8.748;2024-02-26T06:30:10;12.77;;;8.52;;
6626;SDS011;3349;49.830;8.748;2024-02-26T06:32:37;8.82;;;6.93;;
6626;SDS011;3349;49.830;8.748;2024-02-26T06:35:04;11.25;;;8.10;;
6626;SDS011;3349;49.830;8.748;2024-02-26T06:37:34;12.43;;;9.00;;
6626;SDS011;3349;49.830;8.748;2024-02-26T06:40:03;9.18;;;5.72;;
6626;SDS011;3349;49.830;8.748;2024-02-26T06:42:31;7.25;;;5.57;;
6626;SDS011;3349;49.830;8.748;2024-02-26T06:44:58;7.85;;;5.55;;
6626;SDS011;3349;49.830;8.748;2024-02-26T06:47:24;6.50;;;5.30;;
6626;SDS011;3349;49.830;8.748;2024-02-26T06:49:52;8.90;;;6.72;;
6626;SDS011;3349;49.830;8.748;2024-02-26T06:52:20;12.00;;;7.10;;
6626;SDS011;3349;49.830;8.748;2024-02-26T06:54:46;9.02;;;6.88;;
6626;SDS011;3349;49.830;8.748;2024-02-26T06:57:17;9.43;;;7.30;;
6626;SDS011;3349;49.830;8.748;2024-02-26T06:59:44;9.45;;;7.22;;
6626;SDS011;3349;49.830;8.748;2024-02-26T07:02:12;14.18;;;8.70;;
6626;SDS011;3349;49.830;8.748;2024-02-26T07:04:38;12.65;;;9.07;;
6626;SDS011;3349;49.830;8.748;2024-02-26T07:07:05;9.93;;;7.75;;
6626;SDS011;3349;49.830;8.748;2024-02-26T07:09:33;9.43;;;7.40;;
6626;SDS011;3349;49.830;8.748;2024-02-26T07:11:59;9.60;;;7.82;;
6626;SDS011;3349;49.830;8.748;2024-02-26T07:14:27;11.80;;;8.13;;
6626;SDS011;3349;49.830;8.748;2024-02-26T07:16:54;9.48;;;7.57;;
6626;SDS011;3349;49.830;8.748;2024-02-26T07:19:21;9.10;;;7.43;;
6626;SDS011;3349;49.830;8.748;2024-02-26T07:21:48;11.85;;;9.32;;
6626;SDS011;3349;49.830;8.748;2024-02-26T07:24:14;14.40;;;10.43;;
6626;SDS011;3349;49.830;8.748;2024-02-26T07:26:41;13.10;;;10.10;;
6626;SDS011;3349;49.830;8.748;2024-02-26T07:29:08;12.25;;;9.55;;
6626;SDS011;3349;49.830;8.748;2024-02-26T07:31:36;9.40;;;8.20;;
6626;SDS011;3349;49.830;8.748;2024-02-26T07:34:02;9.02;;;7.15;;
6626;SDS011;3349;49.830;8.748;2024-02-26T07:36:29;10.68;;;7.85;;
6626;SDS011;3349;49.830;8.748;2024-02-26T07:38:56;13.52;;;7.80;;
6626;SDS011;3349;49.830;8.748;2024-02-26T07:41:22;10.73;;;7.45;;
6626;SDS011;3349;49.830;8.748;2024-02-26T07:43:49;8.27;;;6.13;;
6626;SDS011;3349;49.830;8.748;2024-02-26T07:46:15;7.25;;;6.00;;
6626;SDS011;3349;49.830;8.748;2024-02-26T07:48:43;7.45;;;6.18;;
6626;SDS011;3349;49.830;8.748;2024-02-26T07:51:11;11.48;;;6.93;;
6626;SDS011;3349;49.830;8.748;2024-02-26T07:53:39;11.88;;;7.03;;
6626;SDS011;3349;49.830;8.748;2024-02-26T07:56:05;9.32;;;6.85;;
6626;SDS011;3349;49.830;8.748;2024-02-26T07:58:32;8.13;;;6.32;;
6626;SDS011;3349;49.830;8.748;2024-02-26T08:00:59;7.75;;;6.03;;
6626;SDS011;3349;49.830;8.748;2024-02-26T08:03:26;10.05;;;6.70;;
6626;SDS011;3349;49.830;8.748;2024-02-26T08:05:54;9.15;;;7.47;;
6626;SDS011;3349;49.830;8.748;2024-02-26T08:08:21;9.73;;;7.50;;
6626;SDS011;3349;49.830;8.748;2024-02-26T08:10:49;8.70;;;7.05;;
6626;SDS011;3349;49.830;8.748;2024-02-26T08:13:15;8.85;;;7.07;;
6626;SDS011;3349;49.830;8.748;2024-02-26T08:15:42;9.85;;;6.72;;
6626;SDS011;3349;49.830;8.748;2024-02-26T08:18:09;12.65;;;8.95;;
6626;SDS011;3349;49.830;8.748;2024-02-26T08:20:35;11.75;;;9.77;;
6626;SDS011;3349;49.830;8.748;2024-02-26T08:23:03;16.77;;;11.63;;
6626;SDS011;3349;49.830;8.748;2024-02-26T08:25:30;14.75;;;9.70;;
6626;SDS011;3349;49.830;8.748;2024-02-26T08:27:57;11.70;;;8.13;;
6626;SDS011;3349;49.830;8.748;2024-02-26T08:30:23;11.52;;;8.15;;
6626;SDS011;3349;49.830;8.748;2024-02-26T08:32:50;12.48;;;8.07;;
6626;SDS011;3349;49.830;8.748;2024-02-26T08:35:17;10.23;;;7.78;;
6626;SDS011;3349;49.830;8.748;2024-02-26T08:37:44;10.98;;;7.53;;
6626;SDS011;3349;49.830;8.748;2024-02-26T08:40:13;13.13;;;8.68;;
6626;SDS011;3349;49.830;8.748;2024-02-26T08:42:39;9.57;;;7.82;;
6626;SDS011;3349;49.830;8.748;2024-02-26T08:45:07;12.35;;;7.95;;
6626;SDS011;3349;49.830;8.748;2024-02-26T08:47:34;9.57;;;7.13;;
6626;SDS011;3349;49.830;8.748;2024-02-26T08:50:00;8.18;;;6.70;;
6626;SDS011;3349;49.830;8.748;2024-02-26T08:52:27;10.82;;;7.45;;
6626;SDS011;3349;49.830;8.748;2024-02-26T08:54:54;9.52;;;7.03;;
6626;SDS011;3349;49.830;8.748;2024-02-26T08:57:22;9.90;;;7.90;;
6626;SDS011;3349;49.830;8.748;2024-02-26T08:59:48;9.65;;;7.60;;
6626;SDS011;3349;49.830;8.748;2024-02-26T09:02:15;8.75;;;6.82;;
6626;SDS011;3349;49.830;8.748;2024-02-26T09:04:42;8.43;;;6.97;;
6626;SDS011;3349;49.830;8.748;2024-02-26T09:07:09;8.75;;;6.40;;
6626;SDS011;3349;49.830;8.748;2024-02-26T09:09:36;7.53;;;6.60;;
6626;SDS011;3349;49.830;8.748;2024-02-26T09:12:03;8.45;;;6.30;;
6626;SDS011;3349;49.830;8.748;2024-02-26T09:14:31;8.10;;;5.68;;
6626;SDS011;3349;49.830;8.748;2024-02-26T09:16:58;7.57;;;6.47;;
6626;SDS011;3349;49.830;8.748;2024-02-26T09:19:26;8.63;;;6.32;;
6626;SDS011;3349;49.830;8.748;2024-02-26T09:21:53;8.52;;;6.28;;
6626;SDS011;3349;49.830;8.748;2024-02-26T09:24:22;7.50;;;6.15;;
6626;SDS011;3349;49.830;8.748;2024-02-26T09:26:49;7.80;;;6.13;;
6626;SDS011;3349;49.830;8.748;2024-02-26T09:29:17;7.53;;;6.07;;
6626;SDS011;3349;49.830;8.748;2024-02-26T09:31:45;7.13;;;6.18;;
6626;SDS011;3349;49.830;8.748;2024-02-26T09:34:13;9.25;;;6.68;;
6626;SDS011;3349;49.830;8.748;2024-02-26T09:36:39;13.95;;;9.82;;
6626;SDS011;3349;49.830;8.748;2024-02-26T09:39:06;12.20;;;9.82;;
6626;SDS011;3349;49.830;8.748;2024-02-26T09:41:36;18.45;;;11.55;;
6626;SDS011;3349;49.830;8.748;2024-02-26T09:44:03;14.15;;;9.98;;
6626;SDS011;3349;49.830;8.748;2024-02-26T09:46:30;21.20;;;13.23;;
6626;SDS011;3349;49.830;8.748;2024-02-26T09:48:59;15.43;;;10.10;;
6626;SDS011;3349;49.830;8.748;2024-02-26T09:51:26;12.27;;;8.90;;
6626;SDS011;3349;49.830;8.748;2024-02-26T09:53:53;8.75;;;7.35;;
6626;SDS011;3349;49.830;8.748;2024-02-26T09:56:22;9.77;;;6.95;;
6626;SDS011;3349;49.830;8.748;2024-02-26T09:58:49;7.60;;;6.20;;
6626;SDS011;3349;49.830;8.748;2024-02-26T10:01:19;8.10;;;5.32;;
6626;SDS011;3349;49.830;8.748;2024-02-26T10:03:47;8.93;;;7.07;;
6626;SDS011;3349;49.830;8.748;2024-02-26T10:06:21;7.57;;;5.78;;
6626;SDS011;3349;49.830;8.748;2024-02-26T10:08:48;6.00;;;5.40;;
6626;SDS011;3349;49.830;8.748;2024-02-26T10:11:15;5.85;;;5.25;;
6626;SDS011;3349;49.830;8.748;2024-02-26T10:13:42;8.32;;;5.38;;
6626;SDS011;3349;49.830;8.748;2024-02-26T10:16:09;5.97;;;5.38;;
6626;SDS011;3349;49.830;8.748;2024-02-26T10:18:45;5.93;;;4.95;;
6626;SDS011;3349;49.830;8.748;2024-02-26T10:21:12;7.97;;;5.65;;
6626;SDS011;3349;49.830;8.748;2024-02-26T10:23:42;5.70;;;5.10;;
6626;SDS011;3349;49.830;8.748;2024-02-26T10:26:09;5.13;;;4.63;;
6626;SDS011;3349;49.830;8.748;2024-02-26T10:28:37;6.65;;;5.57;;
6626;SDS011;3349;49.830;8.748;2024-02-26T10:31:05;6.15;;;5.10;;
6626;SDS011;3349;49.830;8.748;2024-02-26T10:33:32;5.75;;;5.07;;
6626;SDS011;3349;49.830;8.748;2024-02-26T10:36:00;7.63;;;5.15;;
6626;SDS011;3349;49.830;8.748;2024-02-26T10:38:27;5.60;;;4.90;;
6626;SDS011;3349;49.830;8.748;2024-02-26T10:40:55;7.97;;;5.32;;
6626;SDS011;3349;49.830;8.748;2024-02-26T10:43:22;6.05;;;5.03;;
6626;SDS011;3349;49.830;8.748;2024-02-26T10:45:49;5.65;;;4.78;;
6626;SDS011;3349;49.830;8.748;2024-02-26T10:48:15;7.38;;;5.40;;
6626;SDS011;3349;49.830;8.748;2024-02-26T10:50:43;5.47;;;4.85;;
6626;SDS011;3349;49.830;8.748;2024-02-26T10:53:13;6.28;;;4.60;;
6626;SDS011;3349;49.830;8.748;2024-02-26T10:55:42;6.50;;;4.93;;
6626;SDS011;3349;49.830;8.748;2024-02-26T10:58:12;5.72;;;4.60;;
6626;SDS011;3349;49.830;8.748;2024-02-26T11:00:40;7.28;;;5.10;;
6626;SDS011;3349;49.830;8.748;2024-02-26T11:03:07;5.63;;;4.55;;
6626;SDS011;3349;49.830;8.748;2024-02-26T11:05:35;10.77;;;7.68;;
6626;SDS011;3349;49.830;8.748;2024-02-26T11:08:02;10.05;;;7.10;;
6626;SDS011;3349;49.830;8.748;2024-02-26T11:10:30;7.85;;;6.50;;
6626;SDS011;3349;49.830;8.748;2024-02-26T11:12:57;6.45;;;5.47;;
6626;SDS011;3349;49.830;8.748;2024-02-26T11:15:28;7.53;;;5.90;;
6626;SDS011;3349;49.830;8.748;2024-02-26T11:17:58;5.65;;;5.10;;
6626;SDS011;3349;49.830;8.748;2024-02-26T11:20:24;7.38;;;4.97;;
6626;SDS011;3349;49.830;8.748;2024-02-26T11:22:54;6.10;;;4.85;;
6626;SDS011;3349;49.830;8.748;2024-02-26T11:25:21;5.75;;;5.07;;
6626;SDS011;3349;49.830;8.748;2024-02-26T11:27:50;6.40;;;5.57;;
6626;SDS011;3349;49.830;8.748;2024-02-26T11:30:22;7.45;;;6.15;;
6626;SDS011;3349;49.830;8.748;2024-02-26T11:32:52;7.50;;;6.32;;
6626;SDS011;3349;49.830;8.748;2024-02-26T11:35:19;6.40;;;5.55;;
6626;SDS011;3349;49.830;8.748;2024-02-26T11:37:55;6.28;;;5.50;;
6626;SDS011;3349;49.830;8.748;2024-02-26T11:40:23;5.85;;;5.07;;
6626;SDS011;3349;49.830;8.748;2024-02-26T11:42:50;6.00;;;5.07;;
6626;SDS011;3349;49.830;8.748;2024-02-26T11:48:23;6.47;;;5.18;;
6626;SDS011;3349;49.830;8.748;2024-02-26T11:50:51;7.70;;;4.90;;
6626;SDS011;3349;49.830;8.748;2024-02-26T11:53:19;5.90;;;5.15;;
6626;SDS011;3349;49.830;8.748;2024-02-26T11:55:47;5.38;;;4.85;;
6626;SDS011;3349;49.830;8.748;2024-02-26T11:58:14;6.28;;;5.60;;
6626;SDS011;3349;49.830;8.748;2024-02-26T12:00:40;9.07;;;7.05;;
6626;SDS011;3349;49.830;8.748;2024-02-26T12:03:08;7.32;;;5.63;;
6626;SDS011;3349;49.830;8.748;2024-02-26T12:05:38;7.47;;;5.78;;
6626;SDS011;3349;49.830;8.748;2024-02-26T12:08:06;7.25;;;6.43;;
6626;SDS011;3349;49.830;8.748;2024-02-26T12:10:34;10.70;;;7.47;;
6626;SDS011;3349;49.830;8.748;2024-02-26T12:13:07;7.85;;;6.15;;
6626;SDS011;3349;49.830;8.748;2024-02-26T12:15:36;8.18;;;6.80;;
6626;SDS011;3349;49.830;8.748;2024-02-26T12:18:04;6.63;;;5.93;;
6626;SDS011;3349;49.830;8.748;2024-02-26T12:20:32;8.48;;;7.10;;
6626;SDS011;3349;49.830;8.748;2024-02-26T12:23:01;12.63;;;8.88;;
6626;SDS011;3349;49.830;8.748;2024-02-26T12:25:29;7.13;;;5.78;;
6626;SDS011;3349;49.830;8.748;2024-02-26T12:27:56;6.60;;;5.47;;
6626;SDS011;3349;49.830;8.748;2024-02-26T12:30:23;6.95;;;5.68;;
6626;SDS011;3349;49.830;8.748;2024-02-26T12:32:52;6.80;;;5.68;;
6626;SDS011;3349;49.830;8.748;2024-02-26T12:35:22;6.72;;;5.30;;
6626;SDS011;3349;49.830;8.748;2024-02-26T12:37:48;6.85;;;5.78;;
6626;SDS011;3349;49.830;8.748;2024-02-26T12:40:17;5.93;;;5.07;;
6626;SDS011;3349;49.830;8.748;2024-02-26T12:42:45;6.22;;;5.28;;
6626;SDS011;3349;49.830;8.748;2024-02-26T12:45:12;5.60;;;5.00;;
6626;SDS011;3349;49.830;8.748;2024-02-26T12:47:41;6.18;;;5.00;;
6626;SDS011;3349;49.830;8.748;2024-02-26T12:50:09;5.80;;;5.00;;
6626;SDS011;3349;49.830;8.748;2024-02-26T12:52:37;6.63;;;5.07;;
6626;SDS011;3349;49.830;8.748;2024-02-26T12:55:06;6.63;;;5.72;;
6626;SDS011;3349;49.830;8.748;2024-02-26T12:57:35;7.38;;;4.90;;
6626;SDS011;3349;49.830;8.748;2024-02-26T13:00:04;8.68;;;4.97;;
6626;SDS011;3349;49.830;8.748;2024-02-26T13:02:34;5.85;;;5.25;;
6626;SDS011;3349;49.830;8.748;2024-02-26T13:05:02;6.03;;;5.05;;
6626;SDS011;3349;49.830;8.748;2024-02-26T13:07:29;5.88;;;5.15;;
6626;SDS011;3349;49.830;8.748;2024-02-26T13:09:56;5.53;;;4.80;;
6626;SDS011;3349;49.830;8.748;2024-02-26T13:12:23;6.85;;;5.60;;
6626;SDS011;3349;49.830;8.748;2024-02-26T13:14:59;5.30;;;4.40;;
6626;SDS011;3349;49.830;8.748;2024-02-26T13:17:26;6.25;;;4.80;;
6626;SDS011;3349;49.830;8.748;2024-02-26T13:19:53;6.60;;;4.93;;
6626;SDS011;3349;49.830;8.748;2024-02-26T13:22:20;7.97;;;6.25;;
6626;SDS011;3349;49.830;8.748;2024-02-26T13:24:53;8.48;;;6.68;;
6626;SDS011;3349;49.830;8.748;2024-02-26T13:27:20;7.75;;;6.00;;
6626;SDS011;3349;49.830;8.748;2024-02-26T13:29:48;6.50;;;5.82;;
6626;SDS011;3349;49.830;8.748;2024-02-26T13:32:16;9.85;;;6.65;;
6626;SDS011;3349;49.830;8.748;2024-02-26T13:34:42;8.07;;;5.78;;
6626;SDS011;3349;49.830;8.748;2024-02-26T13:37:09;7.55;;;6.30;;
6626;SDS011;3349;49.830;8.748;2024-02-26T13:39:36;8.60;;;5.50;;
6626;SDS011;3349;49.830;8.748;2024-02-26T13:42:05;7.93;;;6.20;;
6626;SDS011;3349;49.830;8.748;2024-02-26T13:44:36;7.20;;;6.20;;
6626;SDS011;3349;49.830;8.748;2024-02-26T13:47:05;7.10;;;6.30;;
6626;SDS011;3349;49.830;8.748;2024-02-26T13:49:33;7.28;;;5.85;;
6626;SDS011;3349;49.830;8.748;2024-02-26T13:52:00;6.15;;;5.53;;
6626;SDS011;3349;49.830;8.748;2024-02-26T13:54:27;6.13;;;5.50;;
6626;SDS011;3349;49.830;8.748;2024-02-26T13:56:54;6.10;;;5.50;;
6626;SDS011;3349;49.830;8.748;2024-02-26T13:59:20;6.25;;;5.65;;
6626;SDS011;3349;49.830;8.748;2024-02-26T14:01:47;6.40;;;5.60;;
6626;SDS011;3349;49.830;8.748;2024-02-26T14:04:14;6.38;;;5.50;;
6626;SDS011;3349;49.830;8.748;2024-02-26T14:06:43;8.15;;;5.50;;
6626;SDS011;3349;49.830;8.748;2024-02-26T14:09:10;7.30;;;6.03;;
6626;SDS011;3349;49.830;8.748;2024-02-26T14:11:36;6.47;;;5.15;;
6626;SDS011;3349;49.830;8.748;2024-02-26T14:14:04;8.65;;;5.22;;
6626;SDS011;3349;49.830;8.748;2024-02-26T14:16:31;6.85;;;5.55;;
6626;SDS011;3349;49.830;8.748;2024-02-26T14:18:58;6.90;;;5.82;;
6626;SDS011;3349;49.830;8.748;2024-02-26T14:21:24;8.48;;;6.40;;
6626;SDS011;3349;49.830;8.748;2024-02-26T14:23:53;8.68;;;7.45;;
6626;SDS011;3349;49.830;8.748;2024-02-26T14:26:20;9.50;;;7.88;;
6626;SDS011;3349;49.830;8.748;2024-02-26T14:28:47;7.22;;;6.53;;
6626;SDS011;3349;49.830;8.748;2024-02-26T14:31:16;7.15;;;6.45;;
6626;SDS011;3349;49.830;8.748;2024-02-26T14:33:43;7.05;;;5.85;;
6626;SDS011;3349;49.830;8.748;2024-02-26T14:36:10;8.20;;;5.93;;
6626;SDS011;3349;49.830;8.748;2024-02-26T14:38:37;7.53;;;6.22;;
6626;SDS011;3349;49.830;8.748;2024-02-26T14:41:05;8.60;;;6.68;;
6626;SDS011;3349;49.830;8.748;2024-02-26T14:43:32;7.65;;;6.07;;
6626;SDS011;3349;49.830;8.748;2024-02-26T14:46:00;6.88;;;6.15;;
6626;SDS011;3349;49.830;8.748;2024-02-26T14:48:26;6.30;;;5.70;;
6626;SDS011;3349;49.830;8.748;2024-02-26T14:50:54;6.68;;;5.97;;
6626;SDS011;3349;49.830;8.748;2024-02-26T14:53:21;6.68;;;4.95;;
6626;SDS011;3349;49.830;8.748;2024-02-26T14:55:47;9.80;;;5.82;;
6626;SDS011;3349;49.830;8.748;2024-02-26T14:58:15;8.32;;;5.85;;
6626;SDS011;3349;49.830;8.748;2024-02-26T15:00:42;7.05;;;5.80;;
6626;SDS011;3349;49.830;8.748;2024-02-26T15:03:09;7.40;;;5.25;;
6626;SDS011;3349;49.830;8.748;2024-02-26T15:05:36;6.30;;;5.70;;
6626;SDS011;3349;49.830;8.748;2024-02-26T15:08:03;6.85;;;5.95;;
6626;SDS011;3349;49.830;8.748;2024-02-26T15:10:30;7.47;;;6.53;;
6626;SDS011;3349;49.830;8.748;2024-02-26T15:12:57;7.47;;;6.55;;
6626;SDS011;3349;49.830;8.748;2024-02-26T15:15:25;9.05;;;5.97;;